METAR Data
IDs: Format: Raw Decoded Include TAF

Data at: 0617 UTC 01 Aug 2021

EDDS 010550Z VRB02KT 9999 -RA FEW001 SCT030 14/13 Q1011 TEMPO RA